sensor_id;sensor_type;location;lat;lon;timestamp;pressure;altitude;pressure_sealevel;temperature;humidity
70468;BME280;57934;51.532;7.684;2023-02-10T00:00:07;102257.19;;;2.63;nan
70468;BME280;57934;51.532;7.684;2023-02-10T00:02:33;102262.50;;;2.61;nan
70468;BME280;57934;51.532;7.684;2023-02-10T00:04:59;102259.72;;;2.65;nan
70468;BME280;57934;51.532;7.684;2023-02-10T00:07:25;102266.69;;;2.64;nan
70468;BME280;57934;51.532;7.684;2023-02-10T00:09:51;102265.66;;;2.67;nan
70468;BME280;57934;51.532;7.684;2023-02-10T00:12:17;102267.34;;;2.68;nan
70468;BME280;57934;51.532;7.684;2023-02-10T00:14:43;102268.84;;;2.72;nan
70468;BME280;57934;51.532;7.684;2023-02-10T00:17:09;102268.19;;;2.68;nan
70468;BME280;57934;51.532;7.684;2023-02-10T00:19:35;102270.69;;;2.70;nan
70468;BME280;57934;51.532;7.684;2023-02-10T00:22:01;102268.25;;;2.67;nan
70468;BME280;57934;51.532;7.684;2023-02-10T00:24:28;102268.06;;;2.70;nan
70468;BME280;57934;51.532;7.684;2023-02-10T00:26:54;102262.88;;;2.70;nan
70468;BME280;57934;51.532;7.684;2023-02-10T00:29:20;102260.84;;;2.75;nan
70468;BME280;57934;51.532;7.684;2023-02-10T00:31:46;102263.44;;;2.75;nan
70468;BME280;57934;51.532;7.684;2023-02-10T00:34:14;102266.06;;;2.75;nan
70468;BME280;57934;51.532;7.684;2023-02-10T00:36:40;102259.81;;;2.77;nan
70468;BME280;57934;51.532;7.684;2023-02-10T00:39:07;102253.75;;;2.77;nan
70468;BME280;57934;51.532;7.684;2023-02-10T00:41:33;102252.72;;;2.79;nan
70468;BME280;57934;51.532;7.684;2023-02-10T00:44:01;102258.97;;;2.77;nan
70468;BME280;57934;51.532;7.684;2023-02-10T00:46:27;102254.69;;;2.76;nan
70468;BME280;57934;51.532;7.684;2023-02-10T00:48:53;102257.28;;;2.76;nan
70468;BME280;57934;51.532;7.684;2023-02-10T00:51:19;102248.47;;;2.78;nan
70468;BME280;57934;51.532;7.684;2023-02-10T00:53:45;102252.09;;;2.76;nan
70468;BME280;57934;51.532;7.684;2023-02-10T00:56:11;102260.72;;;2.76;nan
70468;BME280;57934;51.532;7.684;2023-02-10T00:58:37;102260.72;;;2.76;nan
70468;BME280;57934;51.532;7.684;2023-02-10T01:01:04;102257.75;;;2.82;nan
70468;BME280;57934;51.532;7.684;2023-02-10T01:03:31;102261.31;;;2.81;nan
70468;BME280;57934;51.532;7.684;2023-02-10T01:05:57;102263.16;;;2.79;nan
70468;BME280;57934;51.532;7.684;2023-02-10T01:08:23;102257.47;;;2.73;nan
70468;BME280;57934;51.532;7.684;2023-02-10T01:10:49;102263.16;;;2.79;nan
70468;BME280;57934;51.532;7.684;2023-02-10T01:13:22;102267.91;;;2.73;nan
70468;BME280;57934;51.532;7.684;2023-02-10T01:15:48;102273.28;;;2.70;nan
70468;BME280;57934;51.532;7.684;2023-02-10T01:18:14;102276.00;;;2.68;nan
70468;BME280;57934;51.532;7.684;2023-02-10T01:20:41;102274.34;;;2.67;nan
70468;BME280;57934;51.532;7.684;2023-02-10T01:23:09;102278.78;;;2.65;nan
70468;BME280;57934;51.532;7.684;2023-02-10T01:25:36;102276.28;;;2.63;nan
70468;BME280;57934;51.532;7.684;2023-02-10T01:28:03;102285.66;;;2.66;nan
70468;BME280;57934;51.532;7.684;2023-02-10T01:30:29;102287.25;;;2.69;nan
70468;BME280;57934;51.532;7.684;2023-02-10T01:32:56;102288.53;;;2.61;nan
70468;BME280;57934;51.532;7.684;2023-02-10T01:35:23;102291.03;;;2.63;nan
70468;BME280;57934;51.532;7.684;2023-02-10T01:37:49;102293.09;;;2.58;nan
70468;BME280;57934;51.532;7.684;2023-02-10T01:40:15;102289.09;;;2.52;nan
70468;BME280;57934;51.532;7.684;2023-02-10T01:42:41;102284.75;;;2.53;nan
70468;BME280;57934;51.532;7.684;2023-02-10T01:47:37;102284.63;;;2.40;nan
70468;BME280;57934;51.532;7.684;2023-02-10T01:50:03;102292.78;;;2.34;nan
70468;BME280;57934;51.532;7.684;2023-02-10T01:52:29;102292.03;;;2.32;nan
70468;BME280;57934;51.532;7.684;2023-02-10T01:55:02;102295.06;;;2.24;nan
70468;BME280;57934;51.532;7.684;2023-02-10T01:57:30;102289.75;;;2.11;nan
70468;BME280;57934;51.532;7.684;2023-02-10T01:59:58;102302.84;;;2.10;nan
70468;BME280;57934;51.532;7.684;2023-02-10T02:02:26;102300.50;;;2.05;nan
70468;BME280;57934;51.532;7.684;2023-02-10T02:04:58;102303.44;;;1.99;nan
70468;BME280;57934;51.532;7.684;2023-02-10T02:07:27;102301.97;;;1.95;nan
70468;BME280;57934;51.532;7.684;2023-02-10T02:09:55;102307.75;;;2.00;nan
70468;BME280;57934;51.532;7.684;2023-02-10T02:12:44;102309.97;;;2.06;nan
70468;BME280;57934;51.532;7.684;2023-02-10T02:21:31;102308.31;;;2.05;nan
70468;BME280;57934;51.532;7.684;2023-02-10T02:24:06;102305.72;;;2.05;nan
70468;BME280;57934;51.532;7.684;2023-02-10T02:31:59;102315.34;;;2.03;nan
70468;BME280;57934;51.532;7.684;2023-02-10T02:34:49;102315.19;;;2.06;nan
70468;BME280;57934;51.532;7.684;2023-02-10T02:37:23;102319.28;;;2.10;nan
70468;BME280;57934;51.532;7.684;2023-02-10T02:39:53;102319.44;;;2.23;nan
70468;BME280;57934;51.532;7.684;2023-02-10T02:42:23;102313.94;;;2.28;nan
70468;BME280;57934;51.532;7.684;2023-02-10T02:44:53;102320.75;;;2.30;nan
70468;BME280;57934;51.532;7.684;2023-02-10T02:58:56;102320.81;;;2.14;nan
70468;BME280;57934;51.532;7.684;2023-02-10T03:01:35;102320.38;;;2.06;nan
70468;BME280;57934;51.532;7.684;2023-02-10T03:04:02;102322.31;;;2.03;nan
70468;BME280;57934;51.532;7.684;2023-02-10T03:06:29;102323.44;;;1.99;nan
70468;BME280;57934;51.532;7.684;2023-02-10T03:08:55;102316.47;;;1.99;nan
70468;BME280;57934;51.532;7.684;2023-02-10T03:11:21;102311.53;;;1.95;nan
70468;BME280;57934;51.532;7.684;2023-02-10T03:13:47;102308.09;;;1.94;nan
70468;BME280;57934;51.532;7.684;2023-02-10T03:16:13;102317.00;;;1.90;nan
70468;BME280;57934;51.532;7.684;2023-02-10T03:18:39;102320.50;;;1.89;nan
70468;BME280;57934;51.532;7.684;2023-02-10T03:21:05;102315.56;;;1.84;nan
70468;BME280;57934;51.532;7.684;2023-02-10T03:23:32;102308.59;;;1.85;nan
70468;BME280;57934;51.532;7.684;2023-02-10T03:26:01;102303.22;;;1.88;nan
70468;BME280;57934;51.532;7.684;2023-02-10T03:28:27;102304.91;;;1.89;nan
70468;BME280;57934;51.532;7.684;2023-02-10T03:30:53;102299.13;;;1.84;nan
70468;BME280;57934;51.532;7.684;2023-02-10T03:33:21;102298.63;;;1.77;nan
70468;BME280;57934;51.532;7.684;2023-02-10T03:35:47;102300.41;;;1.77;nan
70468;BME280;57934;51.532;7.684;2023-02-10T03:38:14;102293.53;;;1.76;nan
70468;BME280;57934;51.532;7.684;2023-02-10T03:40:40;102297.03;;;1.75;nan
70468;BME280;57934;51.532;7.684;2023-02-10T03:43:06;102302.34;;;1.73;nan
70468;BME280;57934;51.532;7.684;2023-02-10T03:45:32;102301.06;;;1.64;nan
70468;BME280;57934;51.532;7.684;2023-02-10T03:47:58;102301.44;;;1.58;nan
70468;BME280;57934;51.532;7.684;2023-02-10T03:50:25;102290.44;;;1.53;nan
70468;BME280;57934;51.532;7.684;2023-02-10T03:52:51;102289.69;;;1.51;nan
70468;BME280;57934;51.532;7.684;2023-02-10T03:55:17;102286.50;;;1.46;nan
70468;BME280;57934;51.532;7.684;2023-02-10T03:57:45;102306.56;;;1.44;nan
70468;BME280;57934;51.532;7.684;2023-02-10T04:00:12;102303.44;;;1.37;nan
70468;BME280;57934;51.532;7.684;2023-02-10T04:02:39;102302.09;;;1.30;nan
70468;BME280;57934;51.532;7.684;2023-02-10T04:05:05;102305.03;;;1.24;nan
70468;BME280;57934;51.532;7.684;2023-02-10T04:07:31;102306.84;;;1.22;nan
70468;BME280;57934;51.532;7.684;2023-02-10T04:09:57;102305.53;;;1.31;nan
70468;BME280;57934;51.532;7.684;2023-02-10T04:12:23;102302.94;;;1.31;nan
70468;BME280;57934;51.532;7.684;2023-02-10T04:14:49;102307.47;;;1.27;nan
70468;BME280;57934;51.532;7.684;2023-02-10T04:17:15;102304.59;;;1.32;nan
70468;BME280;57934;51.532;7.684;2023-02-10T04:19:41;102316.66;;;1.33;nan
70468;BME280;57934;51.532;7.684;2023-02-10T04:22:07;102310.91;;;1.28;nan
70468;BME280;57934;51.532;7.684;2023-02-10T04:24:33;102306.63;;;1.27;nan
70468;BME280;57934;51.532;7.684;2023-02-10T04:26:59;102318.69;;;1.28;nan
70468;BME280;57934;51.532;7.684;2023-02-10T04:29:25;102317.75;;;1.29;nan
70468;BME280;57934;51.532;7.684;2023-02-10T04:31:51;102314.41;;;1.27;nan
70468;BME280;57934;51.532;7.684;2023-02-10T04:34:18;102317.25;;;1.22;nan
70468;BME280;57934;51.532;7.684;2023-02-10T04:36:44;102322.59;;;1.19;nan
70468;BME280;57934;51.532;7.684;2023-02-10T04:39:10;102324.78;;;1.11;nan
70468;BME280;57934;51.532;7.684;2023-02-10T04:41:36;102322.44;;;1.06;nan
70468;BME280;57934;51.532;7.684;2023-02-10T04:44:02;102320.91;;;1.02;nan
70468;BME280;57934;51.532;7.684;2023-02-10T04:46:28;102313.44;;;0.96;nan
70468;BME280;57934;51.532;7.684;2023-02-10T04:48:54;102308.94;;;1.00;nan
70468;BME280;57934;51.532;7.684;2023-02-10T04:51:20;102306.56;;;0.95;nan
70468;BME280;57934;51.532;7.684;2023-02-10T04:53:46;102304.13;;;0.92;nan
70468;BME280;57934;51.532;7.684;2023-02-10T04:56:15;102310.06;;;0.94;nan
70468;BME280;57934;51.532;7.684;2023-02-10T04:58:41;102314.44;;;0.93;nan
70468;BME280;57934;51.532;7.684;2023-02-10T05:01:07;102308.94;;;1.00;nan
70468;BME280;57934;51.532;7.684;2023-02-10T05:03:33;102314.13;;;1.00;nan
70468;BME280;57934;51.532;7.684;2023-02-10T05:06:08;102312.50;;;0.97;nan
70468;BME280;57934;51.532;7.684;2023-02-10T05:08:34;102312.19;;;1.03;nan
70468;BME280;57934;51.532;7.684;2023-02-10T05:11:04;102313.19;;;1.01;nan
70468;BME280;57934;51.532;7.684;2023-02-10T05:13:30;102311.13;;;1.07;nan
70468;BME280;57934;51.532;7.684;2023-02-10T05:15:55;102312.19;;;1.03;nan
70468;BME280;57934;51.532;7.684;2023-02-10T05:18:21;102319.06;;;1.04;nan
70468;BME280;57934;51.532;7.684;2023-02-10T05:20:48;102315.88;;;0.99;nan
70468;BME280;57934;51.532;7.684;2023-02-10T05:23:14;102317.13;;;0.92;nan
70468;BME280;57934;51.532;7.684;2023-02-10T05:25:40;102315.88;;;0.99;nan
70468;BME280;57934;51.532;7.684;2023-02-10T05:28:06;102318.47;;;0.99;nan
70468;BME280;57934;51.532;7.684;2023-02-10T05:30:32;102321.97;;;0.98;nan
70468;BME280;57934;51.532;7.684;2023-02-10T05:32:58;102325.34;;;1.00;nan
70468;BME280;57934;51.532;7.684;2023-02-10T05:35:24;102329.03;;;0.96;nan
70468;BME280;57934;51.532;7.684;2023-02-10T05:37:50;102338.59;;;0.95;nan
70468;BME280;57934;51.532;7.684;2023-02-10T05:40:16;102340.50;;;0.92;nan
70468;BME280;57934;51.532;7.684;2023-02-10T05:42:42;102352.28;;;0.82;nan
70468;BME280;57934;51.532;7.684;2023-02-10T05:45:08;102352.13;;;0.85;nan
70468;BME280;57934;51.532;7.684;2023-02-10T05:47:34;102355.75;;;0.81;nan
70468;BME280;57934;51.532;7.684;2023-02-10T05:50:00;102366.09;;;0.82;nan
70468;BME280;57934;51.532;7.684;2023-02-10T05:52:26;102374.03;;;0.79;nan
70468;BME280;57934;51.532;7.684;2023-02-10T05:54:52;102368.56;;;0.68;nan
70468;BME280;57934;51.532;7.684;2023-02-10T05:57:18;102372.22;;;0.64;nan
70468;BME280;57934;51.532;7.684;2023-02-10T05:59:44;102367.09;;;0.62;nan
70468;BME280;57934;51.532;7.684;2023-02-10T06:02:10;102364.66;;;0.59;nan
70468;BME280;57934;51.532;7.684;2023-02-10T06:04:36;102370.47;;;0.64;nan
70468;BME280;57934;51.532;7.684;2023-02-10T06:07:02;102372.13;;;0.65;nan
70468;BME280;57934;51.532;7.684;2023-02-10T06:09:28;102374.88;;;0.62;nan
70468;BME280;57934;51.532;7.684;2023-02-10T06:11:54;102379.47;;;0.57;nan
70468;BME280;57934;51.532;7.684;2023-02-10T06:14:20;102377.16;;;0.51;nan
70468;BME280;57934;51.532;7.684;2023-02-10T06:16:46;102382.13;;;0.56;nan
70468;BME280;57934;51.532;7.684;2023-02-10T06:19:12;102372.75;;;0.53;nan
70468;BME280;57934;51.532;7.684;2023-02-10T06:21:38;102381.38;;;0.54;nan
70468;BME280;57934;51.532;7.684;2023-02-10T06:24:04;102375.81;;;0.61;nan
70468;BME280;57934;51.532;7.684;2023-02-10T06:26:30;102378.31;;;0.63;nan
70468;BME280;57934;51.532;7.684;2023-02-10T06:28:56;102385.59;;;0.56;nan
70468;BME280;57934;51.532;7.684;2023-02-10T06:31:22;102383.88;;;0.55;nan
70468;BME280;57934;51.532;7.684;2023-02-10T06:33:49;102390.53;;;0.61;nan
70468;BME280;57934;51.532;7.684;2023-02-10T06:36:15;102389.56;;;0.63;nan
70468;BME280;57934;51.532;7.684;2023-02-10T06:38:41;102402.88;;;0.56;nan
70468;BME280;57934;51.532;7.684;2023-02-10T06:41:07;102405.44;;;0.57;nan
70468;BME280;57934;51.532;7.684;2023-02-10T06:43:33;102398.72;;;0.53;nan
70468;BME280;57934;51.532;7.684;2023-02-10T06:46:00;102404.78;;;0.52;nan
70468;BME280;57934;51.532;7.684;2023-02-10T06:48:26;102409.94;;;0.54;nan
70468;BME280;57934;51.532;7.684;2023-02-10T06:50:52;102408.16;;;0.54;nan
70468;BME280;57934;51.532;7.684;2023-02-10T06:53:19;102415.88;;;0.56;nan
70468;BME280;57934;51.532;7.684;2023-02-10T06:55:45;102420.84;;;0.60;nan
70468;BME280;57934;51.532;7.684;2023-02-10T06:58:11;102427.13;;;0.56;nan
70468;BME280;57934;51.532;7.684;2023-02-10T07:00:37;102427.16;;;0.55;nan
70468;BME280;57934;51.532;7.684;2023-02-10T07:03:03;102427.94;;;0.57;nan
70468;BME280;57934;51.532;7.684;2023-02-10T07:05:29;102422.53;;;0.61;nan
70468;BME280;57934;51.532;7.684;2023-02-10T07:07:57;102425.91;;;0.63;nan
70468;BME280;57934;51.532;7.684;2023-02-10T07:10:25;102422.13;;;0.69;nan
70468;BME280;57934;51.532;7.684;2023-02-10T07:12:51;102423.31;;;0.63;nan
70468;BME280;57934;51.532;7.684;2023-02-10T07:15:17;102423.91;;;0.68;nan
70468;BME280;57934;51.532;7.684;2023-02-10T07:17:45;102422.28;;;0.66;nan
70468;BME280;57934;51.532;7.684;2023-02-10T07:20:11;102417.78;;;0.69;nan
70468;BME280;57934;51.532;7.684;2023-02-10T07:22:37;102416.72;;;0.74;nan
70468;BME280;57934;51.532;7.684;2023-02-10T07:25:03;102422.28;;;0.83;nan
70468;BME280;57934;51.532;7.684;2023-02-10T07:27:29;102411.69;;;0.88;nan
70468;BME280;57934;51.532;7.684;2023-02-10T07:29:55;102413.91;;;0.95;nan
70468;BME280;57934;51.532;7.684;2023-02-10T07:32:21;102414.78;;;0.94;nan
70468;BME280;57934;51.532;7.684;2023-02-10T07:34:47;102415.41;;;1.00;nan
70468;BME280;57934;51.532;7.684;2023-02-10T07:37:15;102415.03;;;1.07;nan
70468;BME280;57934;51.532;7.684;2023-02-10T07:39:41;102414.88;;;1.10;nan
70468;BME280;57934;51.532;7.684;2023-02-10T07:42:07;102419.91;;;1.13;nan
70468;BME280;57934;51.532;7.684;2023-02-10T07:44:52;102416.66;;;1.26;nan
70468;BME280;57934;51.532;7.684;2023-02-10T07:47:18;102419.19;;;1.27;nan
70468;BME280;57934;51.532;7.684;2023-02-10T07:49:44;102422.38;;;1.32;nan
70468;BME280;57934;51.532;7.684;2023-02-10T07:52:09;102421.59;;;1.48;nan
70468;BME280;57934;51.532;7.684;2023-02-10T07:54:36;102421.09;;;1.57;nan
70468;BME280;57934;51.532;7.684;2023-02-10T07:57:02;102426.47;;;1.70;nan
70468;BME280;57934;51.532;7.684;2023-02-10T07:59:28;102419.00;;;1.63;nan
70468;BME280;57934;51.532;7.684;2023-02-10T08:01:54;102432.94;;;1.62;nan
70468;BME280;57934;51.532;7.684;2023-02-10T08:04:20;102435.38;;;1.65;nan
70468;BME280;57934;51.532;7.684;2023-02-10T08:06:46;102435.13;;;1.70;nan
70468;BME280;57934;51.532;7.684;2023-02-10T08:09:12;102428.16;;;1.71;nan
70468;BME280;57934;51.532;7.684;2023-02-10T08:11:38;102441.41;;;1.82;nan
70468;BME280;57934;51.532;7.684;2023-02-10T08:14:04;102433.09;;;2.23;nan
70468;BME280;57934;51.532;7.684;2023-02-10T08:16:30;102420.88;;;2.99;nan
70468;BME280;57934;51.532;7.684;2023-02-10T08:18:56;102429.28;;;3.76;nan
70468;BME280;57934;51.532;7.684;2023-02-10T08:21:22;102429.63;;;4.38;nan
70468;BME280;57934;51.532;7.684;2023-02-10T08:23:48;102418.34;;;4.65;nan
70468;BME280;57934;51.532;7.684;2023-02-10T08:26:20;102433.97;;;5.17;nan
70468;BME280;57934;51.532;7.684;2023-02-10T08:28:48;102426.72;;;5.59;nan
70468;BME280;57934;51.532;7.684;2023-02-10T08:31:14;102427.47;;;5.98;nan
70468;BME280;57934;51.532;7.684;2023-02-10T08:33:40;102435.06;;;6.38;nan
70468;BME280;57934;51.532;7.684;2023-02-10T08:36:09;102433.19;;;6.75;nan
70468;BME280;57934;51.532;7.684;2023-02-10T08:38:36;102429.53;;;7.00;nan
70468;BME280;57934;51.532;7.684;2023-02-10T08:41:03;102437.44;;;7.11;nan
70468;BME280;57934;51.532;7.684;2023-02-10T08:43:29;102432.66;;;6.59;nan
70468;BME280;57934;51.532;7.684;2023-02-10T08:45:57;102435.84;;;5.90;nan
70468;BME280;57934;51.532;7.684;2023-02-10T08:48:23;102444.44;;;5.17;nan
70468;BME280;57934;51.532;7.684;2023-02-10T08:50:49;102443.31;;;4.69;nan
70468;BME280;57934;51.532;7.684;2023-02-10T08:53:15;102445.78;;;4.18;nan
70468;BME280;57934;51.532;7.684;2023-02-10T08:55:42;102450.31;;;3.87;nan
70468;BME280;57934;51.532;7.684;2023-02-10T08:58:08;102456.75;;;3.81;nan
70468;BME280;57934;51.532;7.684;2023-02-10T09:00:34;102461.97;;;4.23;nan
70468;BME280;57934;51.532;7.684;2023-02-10T09:03:00;102452.88;;;4.95;nan
70468;BME280;57934;51.532;7.684;2023-02-10T09:05:26;102451.84;;;5.62;nan
70468;BME280;57934;51.532;7.684;2023-02-10T09:07:52;102447.94;;;6.17;nan
70468;BME280;57934;51.532;7.684;2023-02-10T09:10:18;102445.34;;;6.76;nan
70468;BME280;57934;51.532;7.684;2023-02-10T09:12:44;102454.72;;;7.03;nan
70468;BME280;57934;51.532;7.684;2023-02-10T09:15:11;102466.19;;;7.47;nan
70468;BME280;57934;51.532;7.684;2023-02-10T09:17:37;102470.25;;;7.84;nan
70468;BME280;57934;51.532;7.684;2023-02-10T09:20:03;102464.03;;;8.51;nan
70468;BME280;57934;51.532;7.684;2023-02-10T09:22:29;102462.16;;;8.74;nan
70468;BME280;57934;51.532;7.684;2023-02-10T09:24:55;102468.31;;;8.09;nan
70468;BME280;57934;51.532;7.684;2023-02-10T09:27:21;102474.13;;;8.24;nan
70468;BME280;57934;51.532;7.684;2023-02-10T09:29:47;102469.81;;;8.23;nan
70468;BME280;57934;51.532;7.684;2023-02-10T09:32:13;102480.81;;;8.39;nan
70468;BME280;57934;51.532;7.684;2023-02-10T09:34:40;102475.84;;;8.57;nan
70468;BME280;57934;51.532;7.684;2023-02-10T09:37:06;102479.38;;;8.24;nan
70468;BME280;57934;51.532;7.684;2023-02-10T09:39:32;102479.28;;;8.14;nan
70468;BME280;57934;51.532;7.684;2023-02-10T09:42:09;102477.44;;;8.37;nan
70468;BME280;57934;51.532;7.684;2023-02-10T09:44:38;102474.94;;;8.47;nan
70468;BME280;57934;51.532;7.684;2023-02-10T09:55:38;102474.16;;;9.40;nan
70468;BME280;57934;51.532;7.684;2023-02-10T09:58:36;102475.25;;;9.06;nan
70468;BME280;57934;51.532;7.684;2023-02-10T10:01:13;102482.41;;;9.04;nan
70468;BME280;57934;51.532;7.684;2023-02-10T10:03:46;102475.69;;;8.91;nan
70468;BME280;57934;51.532;7.684;2023-02-10T10:06:20;102493.44;;;8.77;nan
70468;BME280;57934;51.532;7.684;2023-02-10T10:11:44;102495.97;;;8.35;nan
70468;BME280;57934;51.532;7.684;2023-02-10T10:14:19;102499.75;;;7.77;nan
70468;BME280;57934;51.532;7.684;2023-02-10T10:22:56;102482.22;;;6.62;nan
70468;BME280;57934;51.532;7.684;2023-02-10T10:25:53;102475.75;;;6.31;nan
70468;BME280;57934;51.532;7.684;2023-02-10T10:33:47;102484.28;;;6.21;nan
70468;BME280;57934;51.532;7.684;2023-02-10T10:36:20;102480.47;;;6.74;nan
70468;BME280;57934;51.532;7.684;2023-02-10T10:38:52;102477.25;;;6.70;nan
70468;BME280;57934;51.532;7.684;2023-02-10T10:41:23;102475.38;;;6.48;nan
70468;BME280;57934;51.532;7.684;2023-02-10T10:43:53;102476.31;;;6.23;nan
70468;BME280;57934;51.532;7.684;2023-02-10T10:46:37;102477.94;;;6.00;nan
70468;BME280;57934;51.532;7.684;2023-02-10T10:49:05;102474.88;;;6.19;nan
70468;BME280;57934;51.532;7.684;2023-02-10T10:51:31;102468.56;;;6.45;nan
70468;BME280;57934;51.532;7.684;2023-02-10T10:54:01;102463.34;;;6.81;nan
70468;BME280;57934;51.532;7.684;2023-02-10T10:56:35;102459.97;;;7.14;nan
70468;BME280;57934;51.532;7.684;2023-02-10T10:59:11;102456.16;;;7.18;nan
70468;BME280;57934;51.532;7.684;2023-02-10T11:01:40;102457.94;;;7.17;nan
70468;BME280;57934;51.532;7.684;2023-02-10T11:04:12;102454.75;;;7.36;nan
70468;BME280;57934;51.532;7.684;2023-02-10T11:06:40;102446.75;;;7.60;nan
70468;BME280;57934;51.532;7.684;2023-02-10T11:09:22;102447.81;;;7.35;nan
70468;BME280;57934;51.532;7.684;2023-02-10T11:11:50;102444.25;;;7.25;nan
70468;BME280;57934;51.532;7.684;2023-02-10T11:14:27;102434.94;;;7.77;nan
70468;BME280;57934;51.532;7.684;2023-02-10T11:16:57;102438.06;;;8.26;nan
70468;BME280;57934;51.532;7.684;2023-02-10T11:19:29;102433.22;;;8.95;nan
70468;BME280;57934;51.532;7.684;2023-02-10T11:21:55;102436.53;;;8.76;nan
70468;BME280;57934;51.532;7.684;2023-02-10T11:24:30;102439.88;;;8.57;nan
70468;BME280;57934;51.532;7.684;2023-02-10T11:27:03;102433.81;;;8.67;nan
70468;BME280;57934;51.532;7.684;2023-02-10T11:29:35;102426.06;;;9.07;nan
70468;BME280;57934;51.532;7.684;2023-02-10T11:32:05;102417.78;;;9.12;nan
70468;BME280;57934;51.532;7.684;2023-02-10T11:34:42;102419.19;;;9.16;nan
70468;BME280;57934;51.532;7.684;2023-02-10T11:37:11;102422.78;;;9.45;nan
70468;BME280;57934;51.532;7.684;2023-02-10T11:39:40;102412.81;;;10.86;nan
70468;BME280;57934;51.532;7.684;2023-02-10T11:42:16;102420.72;;;10.96;nan
70468;BME280;57934;51.532;7.684;2023-02-10T11:44:52;102410.69;;;11.64;nan
70468;BME280;57934;51.532;7.684;2023-02-10T11:47:19;102400.25;;;13.14;nan
70468;BME280;57934;51.532;7.684;2023-02-10T11:49:48;102392.94;;;13.84;nan
70468;BME280;57934;51.532;7.684;2023-02-10T11:52:20;102404.78;;;14.39;nan
70468;BME280;57934;51.532;7.684;2023-02-10T11:54:49;102400.63;;;14.37;nan
70468;BME280;57934;51.532;7.684;2023-02-10T11:57:25;102401.13;;;14.73;nan
70468;BME280;57934;51.532;7.684;2023-02-10T12:17:01;102402.81;;;15.21;nan
70468;BME280;57934;51.532;7.684;2023-02-10T12:19:39;102398.28;;;14.42;nan
70468;BME280;57934;51.532;7.684;2023-02-10T12:22:35;102397.84;;;13.71;nan
70468;BME280;57934;51.532;7.684;2023-02-10T12:25:22;102397.06;;;12.14;nan
70468;BME280;57934;51.532;7.684;2023-02-10T12:36:10;102392.34;;;8.06;nan
70468;BME280;57934;51.532;7.684;2023-02-10T12:38:56;102384.69;;;7.71;nan
70468;BME280;57934;51.532;7.684;2023-02-10T12:46:31;102368.19;;;7.69;nan
70468;BME280;57934;51.532;7.684;2023-02-10T12:49:30;102363.69;;;7.71;nan
70468;BME280;57934;51.532;7.684;2023-02-10T12:54:48;102357.22;;;7.75;nan
70468;BME280;57934;51.532;7.684;2023-02-10T12:57:46;102371.63;;;7.92;nan
70468;BME280;57934;51.532;7.684;2023-02-10T13:00:26;102387.88;;;7.85;nan
70468;BME280;57934;51.532;7.684;2023-02-10T13:03:01;102378.38;;;7.73;nan
70468;BME280;57934;51.532;7.684;2023-02-10T13:05:37;102374.44;;;8.00;nan
70468;BME280;57934;51.532;7.684;2023-02-10T13:08:05;102363.28;;;8.19;nan
70468;BME280;57934;51.532;7.684;2023-02-10T13:10:42;102353.81;;;8.27;nan
70468;BME280;57934;51.532;7.684;2023-02-10T13:13:23;102359.63;;;8.31;nan
70468;BME280;57934;51.532;7.684;2023-02-10T13:16:10;102350.25;;;8.17;nan
70468;BME280;57934;51.532;7.684;2023-02-10T13:18:52;102342.97;;;7.88;nan
70468;BME280;57934;51.532;7.684;2023-02-10T13:21:29;102344.63;;;7.89;nan
70468;BME280;57934;51.532;7.684;2023-02-10T13:24:04;102346.25;;;7.70;nan
70468;BME280;57934;51.532;7.684;2023-02-10T13:29:12;102341.19;;;7.46;nan
70468;BME280;57934;51.532;7.684;2023-02-10T13:34:20;102344.41;;;7.38;nan
70468;BME280;57934;51.532;7.684;2023-02-10T13:36:53;102347.38;;;7.33;nan
70468;BME280;57934;51.532;7.684;2023-02-10T13:39:23;102350.38;;;7.17;nan
70468;BME280;57934;51.532;7.684;2023-02-10T13:42:04;102339.53;;;6.88;nan
70468;BME280;57934;51.532;7.684;2023-02-10T13:44:33;102335.94;;;6.89;nan
70468;BME280;57934;51.532;7.684;2023-02-10T13:49:50;102333.41;;;6.65;nan
70468;BME280;57934;51.532;7.684;2023-02-10T13:52:28;102332.81;;;6.62;nan
70468;BME280;57934;51.532;7.684;2023-02-10T14:00:28;102318.03;;;6.50;nan
70468;BME280;57934;51.532;7.684;2023-02-10T14:05:38;102311.00;;;6.61;nan
70468;BME280;57934;51.532;7.684;2023-02-10T14:08:27;102310.44;;;6.69;nan
70468;BME280;57934;51.532;7.684;2023-02-10T14:13:42;102300.06;;;6.67;nan
70468;BME280;57934;51.532;7.684;2023-02-10T14:18:42;102294.56;;;6.59;nan
70468;BME280;57934;51.532;7.684;2023-02-10T14:21:10;102302.63;;;6.45;nan
70468;BME280;57934;51.532;7.684;2023-02-10T14:23:39;102302.25;;;6.38;nan
70468;BME280;57934;51.532;7.684;2023-02-10T14:26:19;102296.91;;;6.29;nan
70468;BME280;57934;51.532;7.684;2023-02-10T14:28:48;102300.97;;;6.33;nan
70468;BME280;57934;51.532;7.684;2023-02-10T14:31:23;102300.13;;;6.32;nan
70468;BME280;57934;51.532;7.684;2023-02-10T14:33:54;102294.50;;;6.26;nan
70468;BME280;57934;51.532;7.684;2023-02-10T14:36:21;102299.75;;;6.26;nan
70468;BME280;57934;51.532;7.684;2023-02-10T14:39:13;102288.56;;;6.35;nan
70468;BME280;57934;51.532;7.684;2023-02-10T14:41:40;102293.69;;;6.36;nan
70468;BME280;57934;51.532;7.684;2023-02-10T14:44:25;102289.53;;;6.45;nan
70468;BME280;57934;51.532;7.684;2023-02-10T14:46:52;102286.81;;;6.47;nan
70468;BME280;57934;51.532;7.684;2023-02-10T14:49:20;102295.50;;;6.47;nan
70468;BME280;57934;51.532;7.684;2023-02-10T14:51:46;102277.97;;;6.36;nan
70468;BME280;57934;51.532;7.684;2023-02-10T14:54:17;102277.84;;;6.27;nan
70468;BME280;57934;51.532;7.684;2023-02-10T14:57:01;102277.59;;;6.18;nan
70468;BME280;57934;51.532;7.684;2023-02-10T14:59:31;102266.00;;;6.10;nan
70468;BME280;57934;51.532;7.684;2023-02-10T15:01:59;102266.22;;;6.07;nan
70468;BME280;57934;51.532;7.684;2023-02-10T15:04:25;102268.47;;;6.00;nan
70468;BME280;57934;51.532;7.684;2023-02-10T15:06:56;102275.63;;;5.98;nan
70468;BME280;57934;51.532;7.684;2023-02-10T15:09:35;102272.38;;;5.94;nan
70468;BME280;57934;51.532;7.684;2023-02-10T15:12:05;102274.56;;;6.01;nan
70468;BME280;57934;51.532;7.684;2023-02-10T15:15:05;102278.09;;;6.00;nan